Terminal Aerodrome Forecast
Issued by NWS Sioux Falls, SD

Home | Current Version | Previous Version | Text Only | Print | Product List | Glossary On
Versions: 1 2 3 4 5 6 7 8 9 10 11 12 13 14
000
FTUS43 KFSD 221731
TAFHON
TAF
KHON 221731Z 2218/2318 21012KT P6SM FEW250
     FM230500 25010KT P6SM BKN100
     FM230800 28011KT P6SM BKN200
     FM231200 29015G23KT P6SM FEW250
     FM231600 30024G35KT P6SM FEW150=

USA.gov is the U.S. government's official web portal to all federal, state and local government web resources and services.